熊本市, 日本

2014年9月03日 01時36分 (GMT +0900)
Saga | Change Station
CLOSE
Current Station
機場
Location: Saga Airport,
海拔: 16 ft
附近的氣象站

海拔 16 ft 33.15 °N, 130.30 °E | Updated 36 minutes ago

Mostly Cloudy
多雲
79 °F
感覺像 79 °F
5
風 變化 風 來自 東北偏東

今日
高 -- | 低 -- °F
--% 降水機率
昨天
高 -- | 低 -- °F
Precip. -- 英寸
5:52 AM 6:39 PM
第一季, 53% visible
氣壓 29.77 英寸
能見度 6.2 英里
多雲 少數 4000 ft
多雲時晴 6000 ft
多雲 10000 ft
露點 73 °F
濕度 83%
降雨量 0.00 英寸
積雪深度 不適用。
紫外線 0 / 12
花粉 不適用。
空氣質素 不適用。
Flu Activity 不適用。
METAR RJFS 021600Z 06004KT 9999 FEW040 SCT060 BKN100 26/23 Q1008

More Conditions Fewer Conditions

氣壓 29.77 英寸
能見度 6.2 英里
多雲 少數 4000 ft
多雲時晴 6000 ft
多雲 10000 ft
露點 73 °F
濕度 83%
降雨量 0.00 英寸
積雪深度 不適用。
紫外線 0 / 12
花粉 不適用。
空氣質素 不適用。
Flu Activity 不適用。
METAR RJFS 021600Z 06004KT 9999 FEW040 SCT060 BKN100 26/23 Q1008

More Conditions Fewer Conditions

10-Day Weather Forecast

Almanac

天文

Sep. 03, 2014 昇起 降落
實際時間 05:52 JST 18:39 JST
民用曙暮光 05:27 JST 19:04 JST
航海曙暮光 04:57 JST 19:34 JST
天文學微明 04:27 JST 20:04 JST
月亮 13:35 JST (9/3) 無月落
可見光的長度 13h 37m
白晝時間
12h 47m
Tomorrow will be 1m 57s shorter.
第一季, 53% of the Moon is Illuminated
9月 2
第一季
9月 8
滿月
9月 15
第四季
9月 24
10月 1
第一季

昨天之最

國家高溫 國家低溫

Community

WunderPhotos

Upload Photos

1,749,715 照片已上傳!

Nearby

積雪量

Not available.

地震活動

城市 距離 時間和日期
附近沒有最近發生的地震活動。
顯示的最小幅度是2.5。

沿海水溫

地點 溫度
無任何天氣監測站報告

附近的氣象站